createdAt,value
2018-01-07T00:01:52.033Z,5.97
2018-01-07T00:04:21.673Z,6.05
2018-01-07T00:06:51.185Z,6.32
2018-01-07T00:09:20.663Z,6.70
2018-01-07T00:11:50.169Z,7.07
2018-01-07T00:14:19.647Z,6.00
2018-01-07T00:16:49.168Z,6.32
2018-01-07T00:19:18.638Z,5.70
2018-01-07T00:21:48.213Z,6.90
2018-01-07T00:24:17.686Z,6.12
2018-01-07T00:26:47.211Z,6.53
2018-01-07T00:29:16.650Z,6.32
2018-01-07T00:31:46.229Z,6.70
2018-01-07T00:34:15.750Z,6.05
2018-01-07T00:36:45.230Z,6.20
2018-01-07T00:39:14.732Z,6.15
2018-01-07T00:41:44.214Z,5.35
2018-01-07T00:44:13.712Z,6.40
2018-01-07T00:46:43.189Z,5.65
2018-01-07T00:49:12.740Z,6.05
2018-01-07T00:51:42.207Z,5.60
2018-01-07T00:54:11.753Z,5.47
2018-01-07T00:56:41.206Z,5.60
2018-01-07T00:59:10.717Z,5.30
2018-01-07T01:01:40.289Z,5.40
2018-01-07T01:04:09.813Z,5.97
2018-01-07T01:06:39.325Z,5.90
2018-01-07T01:09:08.827Z,5.30
2018-01-07T01:11:38.334Z,5.28
2018-01-07T01:14:07.821Z,5.32
2018-01-07T01:16:37.349Z,13.07
2018-01-07T01:19:06.838Z,6.50
2018-01-07T01:21:36.356Z,5.07
2018-01-07T01:24:05.855Z,4.82
2018-01-07T01:26:35.359Z,5.93
2018-01-07T01:29:04.822Z,5.07
2018-01-07T01:31:34.339Z,4.87
2018-01-07T01:34:03.946Z,4.95
2018-01-07T01:36:33.451Z,5.15
2018-01-07T01:39:02.941Z,4.50
2018-01-07T01:41:32.442Z,4.50
2018-01-07T01:44:01.938Z,4.75
2018-01-07T01:46:31.386Z,4.50
2018-01-07T01:49:06.825Z,4.85
2018-01-07T01:51:36.315Z,4.75
2018-01-07T01:54:05.815Z,5.28
2018-01-07T01:56:35.404Z,4.50
2018-01-07T01:59:04.911Z,4.65
2018-01-07T02:01:34.397Z,4.35
2018-01-07T02:04:04.039Z,4.40
2018-01-07T02:06:33.545Z,4.78
2018-01-07T02:09:03.030Z,4.57
2018-01-07T02:11:32.532Z,5.87
2018-01-07T02:14:02.075Z,4.32
2018-01-07T02:16:32.348Z,4.60
2018-01-07T02:19:01.877Z,4.80
2018-01-07T02:21:31.342Z,4.35
2018-01-07T02:24:00.856Z,4.28
2018-01-07T02:26:30.303Z,4.90
2018-01-07T02:28:59.838Z,4.28
2018-01-07T02:31:29.334Z,5.30
2018-01-07T02:33:58.819Z,4.93
2018-01-07T02:36:28.299Z,5.00
2018-01-07T02:38:57.799Z,4.40
2018-01-07T02:41:27.291Z,4.75
2018-01-07T02:43:56.794Z,5.35
2018-01-07T02:46:26.275Z,4.70
2018-01-07T02:48:56.703Z,4.70
2018-01-07T02:51:26.263Z,5.05
2018-01-07T02:53:55.778Z,5.25
2018-01-07T02:56:25.245Z,5.25
2018-01-07T02:58:54.746Z,5.12
2018-01-07T03:01:24.303Z,5.53
2018-01-07T03:03:53.811Z,5.65
2018-01-07T03:06:23.323Z,6.32
2018-01-07T03:08:52.842Z,5.93
2018-01-07T03:11:22.333Z,5.72
2018-01-07T03:13:51.892Z,5.70
2018-01-07T03:16:21.410Z,5.47
2018-01-07T03:18:50.923Z,6.18
2018-01-07T03:21:20.402Z,6.07
2018-01-07T03:23:49.967Z,6.03
2018-01-07T03:26:19.496Z,6.07
2018-01-07T03:28:49.005Z,5.78
2018-01-07T03:31:18.721Z,6.15
2018-01-07T03:33:48.249Z,5.30
2018-01-07T03:36:17.735Z,6.25
2018-01-07T03:38:47.256Z,6.05
2018-01-07T03:41:16.776Z,5.60
2018-01-07T03:43:46.272Z,6.18
2018-01-07T03:46:15.771Z,6.37
2018-01-07T03:48:45.262Z,5.75
2018-01-07T03:51:14.752Z,6.50
2018-01-07T03:53:44.221Z,6.00
2018-01-07T03:56:14.574Z,5.57
2018-01-07T03:58:44.044Z,5.50
2018-01-07T04:01:13.562Z,5.55
2018-01-07T04:03:43.074Z,6.07
2018-01-07T04:06:12.560Z,6.35
2018-01-07T04:08:42.080Z,6.75
2018-01-07T04:11:11.560Z,5.75
2018-01-07T04:13:41.090Z,5.65
2018-01-07T04:16:10.601Z,6.30
2018-01-07T04:18:40.166Z,6.37
2018-01-07T04:21:09.679Z,5.62
2018-01-07T04:23:39.184Z,5.93
2018-01-07T04:26:08.664Z,6.05
2018-01-07T04:28:38.165Z,5.70
2018-01-07T04:31:07.676Z,5.35
2018-01-07T04:33:37.131Z,6.12
2018-01-07T04:36:06.662Z,4.95
2018-01-07T04:38:36.120Z,5.80
2018-01-07T04:41:05.959Z,5.70
2018-01-07T04:43:35.431Z,4.90
2018-01-07T04:46:04.958Z,5.00
2018-01-07T04:48:34.766Z,4.32
2018-01-07T04:51:04.326Z,4.50
2018-01-07T04:53:33.914Z,4.32
2018-01-07T04:56:03.391Z,4.60
2018-01-07T04:58:32.896Z,4.32
2018-01-07T05:01:02.482Z,3.17
2018-01-07T05:03:31.992Z,3.85
2018-01-07T05:06:01.493Z,3.75
2018-01-07T05:08:30.952Z,3.80
2018-01-07T05:11:00.466Z,4.00
2018-01-07T05:13:29.947Z,4.70
2018-01-07T05:15:59.449Z,3.85
2018-01-07T05:18:28.968Z,4.12
2018-01-07T05:20:58.447Z,4.30
2018-01-07T05:23:27.962Z,4.40
2018-01-07T05:25:57.585Z,4.30
2018-01-07T05:28:27.123Z,4.30
2018-01-07T05:30:56.600Z,3.70
2018-01-07T05:33:26.102Z,3.50
2018-01-07T05:35:55.557Z,3.45
2018-01-07T05:38:25.057Z,3.95
2018-01-07T05:40:54.566Z,4.28
2018-01-07T05:43:24.098Z,3.97
2018-01-07T05:45:53.571Z,4.72
2018-01-07T05:48:23.100Z,3.53
2018-01-07T05:50:52.610Z,4.35
2018-01-07T05:53:22.092Z,5.80
2018-01-07T05:55:51.620Z,4.57
2018-01-07T05:58:21.380Z,3.85
2018-01-07T06:00:50.810Z,4.35
2018-01-07T06:03:20.333Z,4.70
2018-01-07T06:05:50.235Z,4.70
2018-01-07T06:08:19.695Z,4.80
2018-01-07T06:10:49.183Z,4.50
2018-01-07T06:13:18.727Z,4.68
2018-01-07T06:15:48.363Z,4.47
2018-01-07T06:18:18.005Z,4.55
2018-01-07T06:20:47.510Z,4.05
2018-01-07T06:23:17.004Z,4.43
2018-01-07T06:25:46.512Z,4.10
2018-01-07T06:28:16.030Z,4.50
2018-01-07T06:30:45.512Z,4.10
2018-01-07T06:33:15.072Z,4.57
2018-01-07T06:35:44.539Z,4.97
2018-01-07T06:38:14.039Z,4.12
2018-01-07T06:40:43.530Z,4.70
2018-01-07T06:43:13.069Z,4.05
2018-01-07T06:45:42.553Z,4.30
2018-01-07T06:48:12.035Z,4.45
2018-01-07T06:50:41.486Z,4.00
2018-01-07T06:53:10.989Z,4.32
2018-01-07T06:55:40.529Z,3.70
2018-01-07T06:58:09.987Z,3.40
2018-01-07T07:00:39.497Z,3.22
2018-01-07T07:03:09.025Z,3.67
2018-01-07T07:05:38.482Z,3.62
2018-01-07T07:08:07.984Z,3.85
2018-01-07T07:10:37.467Z,2.92
2018-01-07T07:13:06.970Z,2.60
2018-01-07T07:15:36.518Z,3.37
2018-01-07T07:18:06.105Z,2.53
2018-01-07T07:20:35.635Z,3.05
2018-01-07T07:23:05.211Z,2.70
2018-01-07T07:25:34.687Z,3.15
2018-01-07T07:28:04.147Z,3.17
2018-01-07T07:30:33.656Z,3.70
2018-01-07T07:33:03.177Z,2.95
2018-01-07T07:35:32.639Z,2.90
2018-01-07T07:38:02.161Z,3.00
2018-01-07T07:40:31.668Z,3.05
2018-01-07T07:43:01.172Z,3.40
2018-01-07T07:45:30.647Z,3.67
2018-01-07T07:48:00.125Z,3.42
2018-01-07T07:50:29.622Z,3.65
2018-01-07T07:52:59.114Z,3.70
2018-01-07T07:55:28.558Z,3.10
2018-01-07T07:57:58.076Z,3.90
2018-01-07T08:00:27.539Z,3.25
2018-01-07T08:02:57.060Z,3.58
2018-01-07T08:05:26.555Z,3.50
2018-01-07T08:07:56.050Z,3.00
2018-01-07T08:10:25.541Z,3.25
2018-01-07T08:12:55.048Z,3.17
2018-01-07T08:15:24.554Z,3.22
2018-01-07T08:17:54.076Z,3.25
2018-01-07T08:20:23.589Z,2.87
2018-01-07T08:22:53.056Z,3.10
2018-01-07T08:25:22.585Z,3.00
2018-01-07T08:27:52.168Z,2.92
2018-01-07T08:30:21.691Z,3.05
2018-01-07T08:32:51.324Z,3.40
2018-01-07T08:35:20.829Z,3.70
2018-01-07T08:37:50.305Z,3.10
2018-01-07T08:40:19.826Z,3.25
2018-01-07T08:42:49.293Z,3.20
2018-01-07T08:45:18.778Z,3.55
2018-01-07T08:47:48.274Z,3.55
2018-01-07T08:50:17.778Z,2.30
2018-01-07T08:52:47.254Z,3.28
2018-01-07T08:55:16.796Z,3.20
2018-01-07T08:57:46.270Z,2.60
2018-01-07T09:00:15.782Z,3.20
2018-01-07T09:02:45.243Z,3.08
2018-01-07T09:05:14.829Z,3.25
2018-01-07T09:07:44.320Z,3.47
2018-01-07T09:10:13.805Z,3.08
2018-01-07T09:12:43.327Z,3.40
2018-01-07T09:15:12.854Z,3.05
2018-01-07T09:17:42.437Z,3.37
2018-01-07T09:20:11.901Z,2.85
2018-01-07T09:22:41.413Z,2.70
2018-01-07T09:25:10.927Z,2.83
2018-01-07T09:27:40.433Z,2.33
2018-01-07T09:30:09.922Z,3.12
2018-01-07T09:32:39.430Z,3.37
2018-01-07T09:35:08.915Z,3.62
2018-01-07T09:37:38.409Z,4.80
2018-01-07T09:40:07.953Z,4.87
2018-01-07T09:42:37.408Z,3.75
2018-01-07T09:45:06.925Z,3.15
2018-01-07T09:47:36.447Z,3.55
2018-01-07T09:50:05.992Z,3.42
2018-01-07T09:52:35.457Z,7.10
2018-01-07T09:55:04.987Z,3.58
2018-01-07T09:57:34.513Z,3.50
2018-01-07T10:00:04.060Z,3.03
2018-01-07T10:02:33.556Z,2.42
2018-01-07T10:05:03.094Z,2.40
2018-01-07T10:07:32.576Z,3.60
2018-01-07T10:10:02.079Z,2.35
2018-01-07T10:12:31.617Z,2.35
2018-01-07T10:15:01.129Z,3.50
2018-01-07T10:17:30.621Z,3.10
2018-01-07T10:20:00.088Z,3.22
2018-01-07T10:22:29.614Z,2.65
2018-01-07T10:24:59.085Z,2.65
2018-01-07T10:27:28.616Z,3.42
2018-01-07T10:29:58.130Z,3.10
2018-01-07T10:32:27.650Z,2.40
2018-01-07T10:34:57.147Z,2.40
2018-01-07T10:37:27.703Z,3.15
2018-01-07T10:39:57.240Z,2.62
2018-01-07T10:42:26.762Z,3.50
2018-01-07T10:44:56.328Z,4.00
2018-01-07T10:47:25.840Z,2.83
2018-01-07T10:49:55.364Z,2.80
2018-01-07T10:52:24.881Z,2.83
2018-01-07T10:54:54.414Z,3.83
2018-01-07T10:57:23.901Z,2.30
2018-01-07T10:59:53.417Z,3.10
2018-01-07T11:02:28.613Z,2.40
2018-01-07T11:04:58.111Z,2.85
2018-01-07T11:07:27.588Z,3.15
2018-01-07T11:09:57.101Z,2.55
2018-01-07T11:12:26.621Z,2.50
2018-01-07T11:14:56.195Z,2.80
2018-01-07T11:17:25.692Z,3.40
2018-01-07T11:19:55.201Z,2.90
2018-01-07T11:22:24.982Z,2.25
2018-01-07T11:24:54.469Z,2.70
2018-01-07T11:27:24.006Z,2.25
2018-01-07T11:29:53.517Z,2.10
2018-01-07T11:32:23.092Z,2.65
2018-01-07T11:34:52.648Z,2.65
2018-01-07T11:37:22.116Z,2.28
2018-01-07T11:39:51.650Z,3.37
2018-01-07T11:42:21.112Z,2.70
2018-01-07T11:44:50.649Z,2.22
2018-01-07T11:47:20.152Z,2.58
2018-01-07T11:49:49.710Z,2.00
2018-01-07T11:52:19.242Z,3.08
2018-01-07T11:54:48.742Z,2.42
2018-01-07T11:57:18.323Z,2.95
2018-01-07T11:59:48.580Z,2.78
2018-01-07T12:02:18.154Z,2.58
2018-01-07T12:04:47.636Z,2.35
2018-01-07T12:07:17.164Z,2.28
2018-01-07T12:09:46.672Z,2.50
2018-01-07T12:12:16.407Z,2.22
2018-01-07T12:14:45.905Z,2.65
2018-01-07T12:17:15.442Z,1.77
2018-01-07T12:19:44.893Z,1.90
2018-01-07T12:22:14.413Z,2.20
2018-01-07T12:24:43.939Z,2.25
2018-01-07T12:27:13.424Z,2.20
2018-01-07T12:29:42.909Z,2.30
2018-01-07T12:32:12.413Z,2.00
2018-01-07T12:34:41.957Z,2.45
2018-01-07T12:37:11.483Z,2.80
2018-01-07T12:39:40.974Z,2.95
2018-01-07T12:42:10.505Z,2.72
2018-01-07T12:44:39.997Z,2.53
2018-01-07T12:47:09.485Z,2.45
2018-01-07T12:49:38.973Z,2.28
2018-01-07T12:52:08.482Z,2.40
2018-01-07T12:54:38.025Z,2.30
2018-01-07T12:57:07.550Z,2.45
2018-01-07T12:59:37.023Z,2.05
2018-01-07T13:02:06.544Z,2.22
2018-01-07T13:04:36.027Z,2.40
2018-01-07T13:07:05.584Z,2.10
2018-01-07T13:09:35.045Z,2.87
2018-01-07T13:12:04.578Z,2.45
2018-01-07T13:14:34.129Z,2.35
2018-01-07T13:17:03.744Z,2.40
2018-01-07T13:19:33.246Z,3.12
2018-01-07T13:22:02.747Z,3.47
2018-01-07T13:24:32.280Z,2.50
2018-01-07T13:27:01.837Z,3.28
2018-01-07T13:29:31.363Z,2.60
2018-01-07T13:32:00.848Z,1.85
2018-01-07T13:34:30.349Z,2.87
2018-01-07T13:36:59.859Z,2.50
2018-01-07T13:39:29.338Z,2.50
2018-01-07T13:41:58.827Z,2.60
2018-01-07T13:44:28.295Z,2.20
2018-01-07T13:46:57.787Z,2.30
2018-01-07T13:49:27.357Z,2.20
2018-01-07T13:51:56.826Z,3.12
2018-01-07T13:54:26.322Z,2.28
2018-01-07T13:56:55.835Z,2.30
2018-01-07T13:59:25.372Z,2.00
2018-01-07T14:01:54.903Z,3.35
2018-01-07T14:04:24.411Z,2.83
2018-01-07T14:06:53.908Z,2.75
2018-01-07T14:09:23.437Z,2.45
2018-01-07T14:11:52.916Z,3.90
2018-01-07T14:14:22.446Z,2.60
2018-01-07T14:16:51.993Z,13.75
2018-01-07T14:19:21.477Z,4.00
2018-01-07T14:21:51.001Z,8.93
2018-01-07T14:24:20.471Z,12.23
2018-01-07T14:26:50.005Z,6.70
2018-01-07T14:29:19.490Z,5.10
2018-01-07T14:31:49.104Z,3.00
2018-01-07T14:34:18.609Z,3.20
2018-01-07T14:36:48.107Z,2.75
2018-01-07T14:39:17.651Z,2.78
2018-01-07T14:41:47.105Z,3.03
2018-01-07T14:44:16.704Z,3.78
2018-01-07T14:46:46.154Z,2.10
2018-01-07T14:49:15.693Z,1.85
2018-01-07T14:51:45.233Z,1.95
2018-01-07T14:54:14.699Z,2.15
2018-01-07T14:56:44.208Z,2.10
2018-01-07T14:59:13.669Z,2.80
2018-01-07T15:01:43.270Z,2.53
2018-01-07T15:04:12.826Z,2.45
2018-01-07T15:06:42.355Z,2.17
2018-01-07T15:09:11.833Z,2.67
2018-01-07T15:11:41.393Z,1.98
2018-01-07T15:14:10.866Z,2.03
2018-01-07T15:16:40.391Z,2.42
2018-01-07T15:19:09.957Z,2.50
2018-01-07T15:21:39.487Z,2.10
2018-01-07T15:24:08.983Z,1.95
2018-01-07T15:26:38.500Z,2.00
2018-01-07T15:29:07.970Z,3.00
2018-01-07T15:31:37.481Z,2.00
2018-01-07T15:34:06.970Z,1.95
2018-01-07T15:36:36.498Z,2.67
2018-01-07T15:39:05.990Z,2.45
2018-01-07T15:41:35.512Z,2.20
2018-01-07T15:44:05.003Z,2.55
2018-01-07T15:46:34.489Z,2.78
2018-01-07T15:49:04.026Z,2.50
2018-01-07T15:51:33.472Z,2.00
2018-01-07T15:54:03.085Z,1.90
2018-01-07T15:56:32.571Z,1.62
2018-01-07T15:59:02.114Z,2.45
2018-01-07T16:01:31.589Z,1.70
2018-01-07T16:04:01.114Z,2.25
2018-01-07T16:06:30.630Z,2.65
2018-01-07T16:09:00.115Z,3.10
2018-01-07T16:11:29.608Z,2.00
2018-01-07T16:13:59.142Z,1.90
2018-01-07T16:16:28.665Z,2.05
2018-01-07T16:18:58.193Z,1.98
2018-01-07T16:21:27.730Z,1.85
2018-01-07T16:23:57.384Z,2.85
2018-01-07T16:26:26.946Z,2.50
2018-01-07T16:28:56.438Z,2.65
2018-01-07T16:31:26.019Z,4.00
2018-01-07T16:33:55.532Z,2.20
2018-01-07T16:36:25.022Z,2.20
2018-01-07T16:38:54.585Z,2.10
2018-01-07T16:41:24.078Z,2.75
2018-01-07T16:43:53.581Z,2.40
2018-01-07T16:46:23.082Z,2.10
2018-01-07T16:48:52.618Z,2.75
2018-01-07T16:51:22.118Z,2.10
2018-01-07T16:53:51.701Z,2.37
2018-01-07T16:56:21.193Z,2.55
2018-01-07T16:58:50.765Z,2.50
2018-01-07T17:01:20.257Z,2.70
2018-01-07T17:03:49.815Z,2.40
2018-01-07T17:06:19.345Z,2.20
2018-01-07T17:08:48.860Z,2.33
2018-01-07T17:11:18.309Z,1.92
2018-01-07T17:13:47.862Z,1.75
2018-01-07T17:16:17.399Z,2.95
2018-01-07T17:18:46.908Z,2.30
2018-01-07T17:21:16.417Z,2.50
2018-01-07T17:23:45.966Z,2.30
2018-01-07T17:26:15.479Z,2.50
2018-01-07T17:28:45.018Z,2.37
2018-01-07T17:31:14.518Z,2.05
2018-01-07T17:33:44.027Z,3.17
2018-01-07T17:36:13.539Z,4.00
2018-01-07T17:38:43.101Z,2.28
2018-01-07T17:41:12.612Z,2.25
2018-01-07T17:43:42.081Z,2.30
2018-01-07T17:46:11.636Z,2.60
2018-01-07T17:48:41.168Z,1.85
2018-01-07T17:51:10.651Z,2.20
2018-01-07T17:53:40.181Z,1.83
2018-01-07T17:56:09.701Z,1.90
2018-01-07T17:58:39.229Z,2.37
2018-01-07T18:01:08.741Z,2.55
2018-01-07T18:03:38.248Z,2.10
2018-01-07T18:06:07.780Z,2.83
2018-01-07T18:08:37.256Z,2.42
2018-01-07T18:11:06.769Z,2.85
2018-01-07T18:13:36.284Z,4.37
2018-01-07T18:16:05.766Z,2.55
2018-01-07T18:18:35.445Z,2.60
2018-01-07T18:21:04.919Z,2.50
2018-01-07T18:23:34.528Z,2.95
2018-01-07T18:26:04.025Z,2.85
2018-01-07T18:28:33.544Z,2.40
2018-01-07T18:31:03.086Z,2.37
2018-01-07T18:33:32.649Z,2.33
2018-01-07T18:36:02.148Z,3.12
2018-01-07T18:38:31.628Z,4.28
2018-01-07T18:41:01.757Z,2.85
2018-01-07T18:43:31.266Z,3.55
2018-01-07T18:46:00.788Z,5.57
2018-01-07T18:48:30.348Z,3.65
2018-01-07T18:50:59.869Z,3.10
2018-01-07T18:53:29.399Z,3.20
2018-01-07T18:55:58.882Z,3.20
2018-01-07T18:58:28.482Z,3.42
2018-01-07T19:00:58.014Z,2.97
2018-01-07T19:03:27.545Z,3.00
2018-01-07T19:05:57.037Z,3.67
2018-01-07T19:08:26.536Z,2.95
2018-01-07T19:10:56.119Z,3.00
2018-01-07T19:13:25.685Z,2.58
2018-01-07T19:15:55.212Z,2.47
2018-01-07T19:18:24.712Z,2.10
2018-01-07T19:20:54.237Z,2.60
2018-01-07T19:23:23.764Z,2.70
2018-01-07T19:25:53.325Z,2.40
2018-01-07T19:28:22.830Z,2.50
2018-01-07T19:30:52.363Z,2.75
2018-01-07T19:33:21.891Z,2.50
2018-01-07T19:35:51.390Z,2.20
2018-01-07T19:38:20.920Z,2.00
2018-01-07T19:40:50.488Z,2.20
2018-01-07T19:43:20.009Z,2.90
2018-01-07T19:45:49.578Z,2.80
2018-01-07T19:48:19.073Z,2.47
2018-01-07T19:50:48.629Z,2.75
2018-01-07T19:53:18.667Z,2.70
2018-01-07T19:55:48.259Z,2.90
2018-01-07T19:58:17.771Z,2.90
2018-01-07T20:00:47.355Z,3.25
2018-01-07T20:03:16.899Z,3.05
2018-01-07T20:05:47.327Z,3.15
2018-01-07T20:08:16.873Z,2.97
2018-01-07T20:10:46.375Z,2.90
2018-01-07T20:13:15.919Z,2.90
2018-01-07T20:15:45.465Z,3.10
2018-01-07T20:18:14.988Z,3.20
2018-01-07T20:20:44.521Z,3.33
2018-01-07T20:23:14.045Z,3.45
2018-01-07T20:25:43.621Z,3.20
2018-01-07T20:28:13.136Z,3.15
2018-01-07T20:30:42.670Z,3.42
2018-01-07T20:33:12.203Z,3.45
2018-01-07T20:35:41.761Z,3.60
2018-01-07T20:38:11.296Z,3.50
2018-01-07T20:40:40.815Z,3.90
2018-01-07T20:43:10.310Z,3.90
2018-01-07T20:45:39.831Z,3.80
2018-01-07T20:48:09.476Z,3.70
2018-01-07T20:50:39.014Z,4.72
2018-01-07T20:53:08.580Z,4.10
2018-01-07T20:55:38.095Z,5.18
2018-01-07T20:58:07.755Z,5.10
2018-01-07T21:00:37.338Z,5.10
2018-01-07T21:03:06.874Z,4.47
2018-01-07T21:05:36.424Z,5.57
2018-01-07T21:08:05.951Z,4.53
2018-01-07T21:10:35.451Z,5.25
2018-01-07T21:13:04.991Z,5.78
2018-01-07T21:15:34.511Z,5.40
2018-01-07T21:18:04.175Z,5.00
2018-01-07T21:20:33.692Z,5.10
2018-01-07T21:23:03.184Z,5.18
2018-01-07T21:25:32.697Z,5.15
2018-01-07T21:28:02.254Z,5.95
2018-01-07T21:30:31.762Z,5.47
2018-01-07T21:33:01.249Z,5.65
2018-01-07T21:35:30.771Z,5.47
2018-01-07T21:38:00.250Z,6.30
2018-01-07T21:40:29.831Z,6.60
2018-01-07T21:42:59.464Z,6.87
2018-01-07T21:45:29.052Z,6.15
2018-01-07T21:47:58.612Z,6.53
2018-01-07T21:50:28.163Z,6.97
2018-01-07T21:52:57.721Z,6.10
2018-01-07T21:55:27.341Z,6.50
2018-01-07T21:57:56.843Z,6.15
2018-01-07T22:00:33.144Z,6.90
2018-01-07T22:03:08.695Z,6.75
2018-01-07T22:05:38.359Z,7.00
2018-01-07T22:08:07.872Z,7.50
2018-01-07T22:10:37.317Z,8.00
2018-01-07T22:13:06.918Z,7.65
2018-01-07T22:15:36.416Z,6.62
2018-01-07T22:18:05.988Z,7.07
2018-01-07T22:20:35.601Z,7.55
2018-01-07T22:23:05.136Z,7.85
2018-01-07T22:25:34.623Z,7.03
2018-01-07T22:28:04.108Z,7.97
2018-01-07T22:30:33.606Z,7.05
2018-01-07T22:33:03.144Z,7.10
2018-01-07T22:35:32.668Z,6.97
2018-01-07T22:38:02.192Z,7.20
2018-01-07T22:40:31.702Z,6.90
2018-01-07T22:43:01.259Z,7.28
2018-01-07T22:45:30.772Z,8.20
2018-01-07T22:48:06.210Z,6.53
2018-01-07T22:50:35.729Z,7.22
2018-01-07T22:53:05.253Z,7.55
2018-01-07T22:55:34.758Z,7.03
2018-01-07T22:58:04.347Z,8.07
2018-01-07T23:00:33.921Z,8.02
2018-01-07T23:03:03.445Z,7.45
2018-01-07T23:05:33.013Z,6.93
2018-01-07T23:08:02.467Z,7.07
2018-01-07T23:10:32.013Z,9.50
2018-01-07T23:13:01.497Z,7.57
2018-01-07T23:15:30.990Z,7.00
2018-01-07T23:18:00.510Z,5.87
2018-01-07T23:20:30.047Z,8.30
2018-01-07T23:22:59.570Z,7.05
2018-01-07T23:25:29.103Z,7.32
2018-01-07T23:27:58.601Z,8.10
2018-01-07T23:30:28.083Z,7.82
2018-01-07T23:32:57.727Z,7.07
2018-01-07T23:35:27.214Z,7.40
2018-01-07T23:37:56.747Z,7.65
2018-01-07T23:40:26.249Z,7.70
2018-01-07T23:42:55.780Z,7.07
2018-01-07T23:45:25.265Z,8.02
2018-01-07T23:47:54.788Z,6.22
2018-01-07T23:50:24.264Z,6.40
2018-01-07T23:52:53.817Z,6.50
2018-01-07T23:55:23.348Z,8.25
2018-01-07T23:57:52.872Z,8.55
